createdAt,value
2018-07-11T00:01:10.279Z,69.32
2018-07-11T00:03:41.984Z,69.63
2018-07-11T00:06:08.728Z,69.72
2018-07-11T00:08:35.466Z,70.59
2018-07-11T00:11:02.192Z,70.24
2018-07-11T00:13:29.149Z,70.82
2018-07-11T00:15:56.071Z,70.49
2018-07-11T00:18:22.739Z,70.33
2018-07-11T00:20:49.409Z,70.64
2018-07-11T00:23:16.128Z,70.54
2018-07-11T00:25:42.803Z,69.79
2018-07-11T00:28:09.503Z,69.04
2018-07-11T00:30:36.306Z,69.62
2018-07-11T00:33:03.029Z,68.99
2018-07-11T00:35:29.711Z,69.30
2018-07-11T00:37:56.421Z,69.19
2018-07-11T00:40:23.199Z,69.51
2018-07-11T00:42:49.985Z,69.65
2018-07-11T00:45:16.701Z,68.77
2018-07-11T00:47:43.482Z,68.80
2018-07-11T00:50:10.174Z,69.32
2018-07-11T00:52:36.922Z,69.97
2018-07-11T00:55:03.689Z,70.23
2018-07-11T00:57:30.406Z,70.67
2018-07-11T00:59:57.150Z,70.92
2018-07-11T01:02:23.902Z,70.66
2018-07-11T01:04:50.629Z,70.84
2018-07-11T01:07:17.363Z,70.25
2018-07-11T01:09:44.882Z,70.89
2018-07-11T01:12:11.568Z,70.83
2018-07-11T01:14:38.391Z,71.77
2018-07-11T01:17:09.629Z,71.95
2018-07-11T01:22:10.093Z,71.28
2018-07-11T01:24:36.803Z,72.23
2018-07-11T01:27:03.627Z,71.89
2018-07-11T01:29:30.328Z,71.65
2018-07-11T01:31:57.087Z,71.66
2018-07-11T01:34:23.916Z,72.06
2018-07-11T01:36:50.609Z,71.67
2018-07-11T01:39:17.360Z,71.83
2018-07-11T01:41:44.112Z,71.75
2018-07-11T01:44:10.862Z,71.93
2018-07-11T01:46:52.704Z,71.60
2018-07-11T01:49:19.420Z,72.06
2018-07-11T01:51:52.370Z,71.63
2018-07-11T01:54:19.136Z,71.96
2018-07-11T01:56:45.848Z,72.30
2018-07-11T01:59:12.573Z,72.14
2018-07-11T02:01:39.408Z,72.37
2018-07-11T02:04:06.187Z,72.98
2018-07-11T02:06:32.975Z,72.82
2018-07-11T02:08:59.696Z,72.80
2018-07-11T02:11:26.461Z,72.56
2018-07-11T02:13:53.191Z,72.37
2018-07-11T02:16:19.951Z,72.01
2018-07-11T02:18:47.656Z,72.88
2018-07-11T02:21:14.401Z,72.76
2018-07-11T02:23:41.118Z,72.59
2018-07-11T02:26:07.818Z,73.76
2018-07-11T02:28:34.570Z,73.80
2018-07-11T02:31:01.534Z,73.45
2018-07-11T02:33:28.263Z,73.67
2018-07-11T02:35:55.327Z,73.06
2018-07-11T02:38:22.019Z,73.20
2018-07-11T02:40:48.816Z,73.26
2018-07-11T02:43:15.521Z,74.21
2018-07-11T02:45:43.889Z,74.67
2018-07-11T02:48:10.614Z,74.58
2018-07-11T02:50:38.162Z,74.41
2018-07-11T02:53:04.871Z,74.59
2018-07-11T02:55:33.029Z,74.25
2018-07-11T02:57:59.719Z,74.49
2018-07-11T03:00:26.485Z,74.09
2018-07-11T03:02:53.186Z,74.08
2018-07-11T03:05:20.031Z,74.70
2018-07-11T03:07:46.780Z,74.83
2018-07-11T03:10:13.469Z,75.27
2018-07-11T03:12:40.171Z,75.30
2018-07-11T03:15:06.830Z,75.15
2018-07-11T03:17:34.283Z,75.22
2018-07-11T03:20:01.013Z,75.57
2018-07-11T03:22:28.591Z,75.61
2018-07-11T03:24:55.315Z,76.46
2018-07-11T03:27:23.646Z,76.22
2018-07-11T03:29:50.425Z,76.48
2018-07-11T03:32:17.543Z,76.18
2018-07-11T03:34:44.279Z,76.29
2018-07-11T03:37:10.990Z,77.19
2018-07-11T03:39:38.238Z,77.35
2018-07-11T03:42:05.077Z,76.44
2018-07-11T03:44:31.780Z,76.56
2018-07-11T03:46:58.853Z,77.42
2018-07-11T03:51:58.674Z,77.26
2018-07-11T03:54:25.494Z,76.70
2018-07-11T03:56:52.237Z,76.90
2018-07-11T03:59:18.960Z,76.89
2018-07-11T04:01:45.698Z,77.43
2018-07-11T04:04:12.376Z,77.13
2018-07-11T04:06:39.096Z,76.22
2018-07-11T04:09:05.859Z,77.06
2018-07-11T04:11:32.660Z,77.27
2018-07-11T04:13:59.402Z,76.90
2018-07-11T04:16:26.027Z,77.54
2018-07-11T04:18:52.781Z,76.84
2018-07-11T04:21:19.517Z,76.73
2018-07-11T04:23:46.185Z,76.38
2018-07-11T04:26:13.005Z,75.98
2018-07-11T04:28:40.096Z,76.67
2018-07-11T04:31:06.811Z,76.46
2018-07-11T04:33:33.522Z,76.28
2018-07-11T04:36:00.295Z,77.39
2018-07-11T04:38:27.328Z,76.76
2018-07-11T04:40:54.011Z,76.59
2018-07-11T04:43:21.925Z,76.80
2018-07-11T04:45:48.922Z,77.33
2018-07-11T04:48:17.369Z,76.91
2018-07-11T04:50:44.123Z,77.12
2018-07-11T04:53:13.673Z,77.74
2018-07-11T04:55:41.522Z,77.46
2018-07-11T04:58:08.230Z,77.29
2018-07-11T05:00:34.948Z,78.10
2018-07-11T05:03:01.840Z,77.45
2018-07-11T05:05:28.599Z,77.25
2018-07-11T05:07:55.321Z,77.70
2018-07-11T05:10:22.214Z,76.72
2018-07-11T05:12:48.940Z,76.74
2018-07-11T05:15:15.648Z,77.37
2018-07-11T05:17:42.378Z,76.75
2018-07-11T05:20:09.081Z,76.72
2018-07-11T05:22:35.780Z,76.78
2018-07-11T05:25:02.806Z,77.86
2018-07-11T05:27:29.553Z,76.89
2018-07-11T05:29:56.437Z,76.75
2018-07-11T05:32:23.175Z,76.84
2018-07-11T05:34:49.927Z,76.31
2018-07-11T05:37:16.655Z,76.28
2018-07-11T05:39:43.384Z,76.85
2018-07-11T05:42:10.164Z,76.90
2018-07-11T05:44:36.793Z,76.31
2018-07-11T05:47:04.469Z,76.71
2018-07-11T05:49:31.349Z,75.73
2018-07-11T05:51:58.336Z,75.87
2018-07-11T05:54:25.027Z,75.26
2018-07-11T05:56:51.817Z,74.54
2018-07-11T05:59:19.087Z,73.34
2018-07-11T06:01:45.836Z,72.79
2018-07-11T06:04:12.510Z,72.43
2018-07-11T06:06:39.243Z,70.34
2018-07-11T06:09:05.939Z,69.88
2018-07-11T06:11:32.697Z,69.64
2018-07-11T06:13:59.435Z,68.91
2018-07-11T06:16:26.163Z,68.28
2018-07-11T06:18:52.887Z,67.60
2018-07-11T06:21:22.164Z,67.65
2018-07-11T06:23:48.791Z,67.38
2018-07-11T06:26:15.563Z,66.23
2018-07-11T06:28:42.230Z,66.51
2018-07-11T06:31:10.355Z,66.94
2018-07-11T06:33:37.009Z,66.93
2018-07-11T06:36:04.540Z,67.65
2018-07-11T06:38:31.284Z,67.72
2018-07-11T06:40:58.017Z,66.60
2018-07-11T06:43:24.746Z,65.78
2018-07-11T06:45:51.825Z,65.58
2018-07-11T06:48:18.630Z,65.90
2018-07-11T06:50:45.329Z,65.54
2018-07-11T06:53:12.057Z,66.46
2018-07-11T06:55:38.890Z,65.58
2018-07-11T06:58:05.811Z,66.08
2018-07-11T07:00:32.518Z,66.48
2018-07-11T07:03:00.951Z,65.44
2018-07-11T07:05:27.689Z,65.09
2018-07-11T07:07:55.994Z,63.74
2018-07-11T07:10:22.623Z,62.97
2018-07-11T07:12:50.240Z,63.49
2018-07-11T07:15:16.995Z,64.27
2018-07-11T07:17:43.785Z,64.20
2018-07-11T07:20:10.510Z,64.01
2018-07-11T07:22:37.187Z,64.38
2018-07-11T07:25:04.892Z,62.13
2018-07-11T07:27:31.641Z,60.19
2018-07-11T07:29:58.358Z,60.42
2018-07-11T07:32:26.010Z,60.54
2018-07-11T07:34:52.781Z,60.19
2018-07-11T07:37:19.478Z,59.11
2018-07-11T07:39:46.264Z,56.38
2018-07-11T07:42:13.027Z,56.01
2018-07-11T07:44:40.665Z,55.38
2018-07-11T07:47:12.022Z,54.75
2018-07-11T07:49:38.687Z,54.44
2018-07-11T07:52:05.425Z,54.45
2018-07-11T07:54:32.138Z,54.35
2018-07-11T07:56:58.873Z,53.96
2018-07-11T07:59:25.955Z,54.22
2018-07-11T08:01:52.668Z,56.71
2018-07-11T08:04:19.398Z,58.50
2018-07-11T08:06:46.164Z,59.61
2018-07-11T08:09:12.885Z,58.39
2018-07-11T08:11:39.548Z,58.72
2018-07-11T08:14:06.261Z,59.01
2018-07-11T08:16:33.002Z,56.13
2018-07-11T08:18:59.756Z,55.14
2018-07-11T08:21:26.530Z,55.04
2018-07-11T08:26:05.905Z,55.62
2018-07-11T08:28:38.562Z,55.36
2018-07-11T08:31:43.306Z,56.26
2018-07-11T08:36:23.874Z,57.17
2018-07-11T08:41:02.223Z,57.80
2018-07-11T08:43:34.747Z,57.19
2018-07-11T08:46:07.340Z,57.80
2018-07-11T08:48:39.920Z,59.20
2018-07-11T08:51:28.552Z,58.72
2018-07-11T08:56:10.194Z,58.57
2018-07-11T08:58:53.772Z,57.64
2018-07-11T09:01:25.110Z,55.52
2018-07-11T09:06:03.223Z,56.48
2018-07-11T09:08:35.028Z,54.29
2018-07-11T09:11:07.323Z,54.58
2018-07-11T09:13:55.491Z,55.01
2018-07-11T09:16:36.340Z,54.07
2018-07-11T09:19:14.019Z,54.87
2018-07-11T09:21:52.787Z,55.25
2018-07-11T09:24:44.734Z,55.06
2018-07-11T09:27:11.816Z,54.37
2018-07-11T09:29:39.314Z,53.90
2018-07-11T09:32:06.078Z,53.46
2018-07-11T09:34:33.050Z,52.51
2018-07-11T09:36:59.775Z,53.00
2018-07-11T09:39:26.502Z,52.52
2018-07-11T09:41:53.224Z,49.98
2018-07-11T09:44:20.308Z,48.87
2018-07-11T09:46:47.101Z,48.65
2018-07-11T09:49:13.842Z,47.09
2018-07-11T09:51:40.571Z,46.38
2018-07-11T09:54:07.371Z,46.05
2018-07-11T09:56:34.086Z,45.76
2018-07-11T09:59:00.774Z,47.34
2018-07-11T10:01:27.881Z,49.00
2018-07-11T10:03:55.804Z,50.30
2018-07-11T10:06:23.073Z,51.28
2018-07-11T10:08:50.053Z,49.80
2018-07-11T10:11:16.803Z,49.96
2018-07-11T10:13:43.473Z,51.20
2018-07-11T10:16:10.174Z,52.75
2018-07-11T10:18:36.872Z,53.23
2018-07-11T10:21:03.639Z,53.71
2018-07-11T10:23:30.362Z,53.93
2018-07-11T10:25:57.002Z,53.33
2018-07-11T10:28:23.748Z,53.29
2018-07-11T10:30:50.440Z,52.49
2018-07-11T10:33:17.208Z,52.12
2018-07-11T10:35:43.891Z,51.96
2018-07-11T10:38:11.455Z,52.33
2018-07-11T10:40:38.308Z,52.56
2018-07-11T10:43:05.237Z,52.77
2018-07-11T10:45:31.986Z,53.92
2018-07-11T10:47:58.661Z,52.37
2018-07-11T10:50:25.423Z,53.30
2018-07-11T10:52:52.457Z,52.62
2018-07-11T10:55:19.206Z,53.24
2018-07-11T10:57:45.986Z,54.07
2018-07-11T11:00:24.030Z,53.88
2018-07-11T11:02:39.522Z,53.11
2018-07-11T11:05:06.346Z,52.54
2018-07-11T11:07:33.100Z,54.19
2018-07-11T11:09:59.795Z,53.97
2018-07-11T11:12:26.523Z,53.63
2018-07-11T11:14:53.461Z,52.46
2018-07-11T11:17:20.225Z,53.06
2018-07-11T11:19:46.961Z,52.36
2018-07-11T11:22:13.743Z,52.56
2018-07-11T11:24:40.480Z,52.45
2018-07-11T11:27:07.194Z,51.85
2018-07-11T11:29:33.951Z,50.62
2018-07-11T11:32:00.712Z,50.00
2018-07-11T11:34:27.441Z,48.42
2018-07-11T11:36:54.162Z,47.49
2018-07-11T11:39:20.863Z,47.65
2018-07-11T11:41:47.657Z,48.25
2018-07-11T11:44:14.283Z,47.97
2018-07-11T11:46:41.032Z,48.94
2018-07-11T11:49:07.709Z,49.06
2018-07-11T11:51:34.485Z,50.25
2018-07-11T11:54:01.223Z,50.13
2018-07-11T11:56:30.067Z,46.92
2018-07-11T11:58:57.017Z,45.41
2018-07-11T12:01:23.735Z,45.07
2018-07-11T12:03:50.414Z,45.08
2018-07-11T12:06:17.146Z,45.78
2018-07-11T12:08:43.832Z,46.39
2018-07-11T12:11:10.498Z,46.64
2018-07-11T12:13:37.285Z,46.51
2018-07-11T12:16:04.238Z,47.51
2018-07-11T12:18:30.993Z,48.34
2018-07-11T12:20:58.940Z,49.20
2018-07-11T12:23:25.794Z,48.39
2018-07-11T12:25:58.403Z,48.78
2018-07-11T12:28:25.081Z,49.19
2018-07-11T12:30:51.848Z,49.12
2018-07-11T12:33:18.631Z,48.82
2018-07-11T12:35:45.400Z,49.68
2018-07-11T12:38:12.161Z,49.43
2018-07-11T12:40:38.833Z,49.89
2018-07-11T12:43:05.746Z,48.86
2018-07-11T12:45:32.531Z,50.63
2018-07-11T12:48:04.997Z,52.18
2018-07-11T12:50:31.714Z,52.09
2018-07-11T12:52:58.420Z,53.58
2018-07-11T12:55:25.195Z,53.79
2018-07-11T12:57:51.971Z,52.25
2018-07-11T13:00:18.686Z,53.38
2018-07-11T13:02:45.346Z,52.97
2018-07-11T13:05:12.139Z,53.00
2018-07-11T13:07:38.849Z,53.27
2018-07-11T13:10:05.679Z,53.29
2018-07-11T13:12:32.377Z,53.31
2018-07-11T13:14:59.025Z,53.14
2018-07-11T13:17:25.757Z,53.64
2018-07-11T13:19:52.474Z,53.85
2018-07-11T13:22:19.132Z,53.98
2018-07-11T13:24:45.808Z,52.79
2018-07-11T13:27:12.562Z,52.96
2018-07-11T13:29:39.307Z,52.41
2018-07-11T13:32:06.050Z,51.54
2018-07-11T13:34:33.507Z,49.39
2018-07-11T13:37:00.820Z,48.89
2018-07-11T13:39:28.196Z,49.71
2018-07-11T13:41:55.505Z,48.52
2018-07-11T13:44:22.875Z,49.08
2018-07-11T13:46:50.226Z,49.20
2018-07-11T13:49:17.600Z,49.07
2018-07-11T13:51:45.006Z,48.99
2018-07-11T13:54:12.470Z,47.27
2018-07-11T13:56:39.822Z,48.06
2018-07-11T13:59:07.220Z,48.32
2018-07-11T14:01:34.520Z,49.39
2018-07-11T14:04:02.352Z,48.62
2018-07-11T14:06:29.647Z,45.48
2018-07-11T14:08:56.970Z,46.65
2018-07-11T14:11:24.428Z,44.56
2018-07-11T14:13:51.816Z,42.33
2018-07-11T14:16:19.637Z,41.55
2018-07-11T14:21:37.975Z,42.94
2018-07-11T14:24:05.364Z,41.95
2018-07-11T14:26:32.777Z,41.98
2018-07-11T14:29:01.669Z,41.85
2018-07-11T14:31:34.977Z,41.17
2018-07-11T14:34:05.015Z,41.44
2018-07-11T14:36:32.851Z,40.74
2018-07-11T14:39:00.354Z,39.87
2018-07-11T14:41:30.262Z,39.55
2018-07-11T14:44:04.183Z,38.42
2018-07-11T14:46:33.000Z,38.51
2018-07-11T14:49:00.616Z,39.49
2018-07-11T14:51:28.125Z,39.42
2018-07-11T14:53:56.505Z,40.82
2018-07-11T14:56:23.906Z,41.07
2018-07-11T14:58:54.231Z,39.15
2018-07-11T15:01:22.218Z,39.14
2018-07-11T15:03:49.605Z,38.42
2018-07-11T15:06:17.050Z,37.85
2018-07-11T15:08:44.511Z,37.85
2018-07-11T15:11:11.935Z,36.87
2018-07-11T15:13:39.339Z,37.34
2018-07-11T15:16:06.668Z,37.70
2018-07-11T15:18:33.985Z,36.63
2018-07-11T15:21:01.409Z,37.70
2018-07-11T15:23:28.806Z,37.46
2018-07-11T15:25:56.241Z,35.73
2018-07-11T15:28:23.680Z,36.88
2018-07-11T15:30:51.181Z,38.02
2018-07-11T15:33:19.103Z,37.91
2018-07-11T15:35:46.447Z,38.58
2018-07-11T15:38:13.846Z,37.31
2018-07-11T15:40:41.278Z,37.02
2018-07-11T15:43:09.025Z,36.72
2018-07-11T15:45:36.468Z,37.78
2018-07-11T15:48:03.850Z,38.60
2018-07-11T15:50:31.699Z,38.28
2018-07-11T15:52:59.838Z,36.35
2018-07-11T15:55:28.529Z,36.37
2018-07-11T15:58:01.545Z,36.08
2018-07-11T16:00:35.640Z,36.77
2018-07-11T16:03:03.200Z,37.60
2018-07-11T16:05:30.869Z,38.80
2018-07-11T16:08:06.374Z,38.21
2018-07-11T16:10:43.831Z,38.65
2018-07-11T16:13:11.215Z,39.45
2018-07-11T16:15:38.626Z,38.17
2018-07-11T16:18:06.978Z,39.36
2018-07-11T16:20:34.727Z,38.73
2018-07-11T16:23:02.587Z,39.55
2018-07-11T16:25:29.937Z,38.09
2018-07-11T16:27:57.367Z,38.21
2018-07-11T16:30:24.871Z,38.69
2018-07-11T16:32:52.358Z,39.15
2018-07-11T16:35:19.739Z,39.61
2018-07-11T16:37:47.229Z,39.49
2018-07-11T16:40:14.531Z,38.81
2018-07-11T16:42:41.916Z,38.94
2018-07-11T16:45:09.292Z,39.40
2018-07-11T16:47:38.051Z,40.11
2018-07-11T16:50:05.411Z,39.93
2018-07-11T16:52:32.932Z,39.35
2018-07-11T16:55:00.994Z,40.45
2018-07-11T16:57:31.665Z,40.96
2018-07-11T17:00:03.283Z,40.59
2018-07-11T17:02:30.675Z,40.96
2018-07-11T17:05:06.594Z,41.73
2018-07-11T17:07:39.941Z,42.06
2018-07-11T17:10:07.280Z,40.49
2018-07-11T17:12:35.751Z,41.32
2018-07-11T17:15:03.145Z,41.12
2018-07-11T17:17:33.587Z,41.67
2018-07-11T17:20:06.873Z,42.35
2018-07-11T17:22:56.663Z,41.73
2018-07-11T17:25:29.417Z,42.49
2018-07-11T17:27:58.774Z,42.06
2018-07-11T17:30:29.474Z,42.44
2018-07-11T17:32:56.937Z,43.62
2018-07-11T17:35:24.298Z,43.07
2018-07-11T17:37:51.797Z,42.84
2018-07-11T17:40:23.664Z,43.72
2018-07-11T17:42:51.072Z,43.71
2018-07-11T17:45:19.359Z,44.18
2018-07-11T17:50:01.731Z,43.07
2018-07-11T17:52:29.203Z,44.01
2018-07-11T17:55:10.920Z,43.91
2018-07-11T17:58:00.888Z,44.40
2018-07-11T18:01:08.031Z,44.87
2018-07-11T18:03:43.938Z,44.17
2018-07-11T18:06:17.810Z,44.22
2018-07-11T18:08:51.050Z,44.17
2018-07-11T18:11:18.405Z,44.60
2018-07-11T18:13:50.239Z,44.57
2018-07-11T18:16:41.235Z,45.07
2018-07-11T18:20:24.750Z,45.11
2018-07-11T18:23:03.765Z,45.78
2018-07-11T18:25:52.515Z,45.31
2018-07-11T18:28:38.671Z,45.93
2018-07-11T18:31:33.674Z,45.28
2018-07-11T18:35:14.378Z,46.04
2018-07-11T18:37:50.968Z,46.72
2018-07-11T18:40:34.676Z,46.65
2018-07-11T18:43:32.769Z,47.56
2018-07-11T18:46:10.754Z,48.26
2018-07-11T18:49:18.149Z,47.67
2018-07-11T18:52:11.992Z,47.75
2018-07-11T18:56:59.087Z,48.42
2018-07-11T18:59:34.612Z,49.39
2018-07-11T19:02:11.700Z,49.26
2018-07-11T19:04:49.689Z,48.97
2018-07-11T19:07:25.949Z,49.60
2018-07-11T19:09:55.801Z,49.50
2018-07-11T19:12:30.131Z,49.36
2018-07-11T19:15:06.268Z,49.49
2018-07-11T19:18:09.589Z,49.19
2018-07-11T19:20:42.595Z,50.01
2018-07-11T19:23:18.500Z,51.10
2018-07-11T19:26:56.088Z,51.27
2018-07-11T19:30:07.740Z,51.49
2018-07-11T19:33:46.919Z,51.73
2018-07-11T19:36:58.537Z,52.25
2018-07-11T19:41:44.525Z,51.81
2018-07-11T19:44:39.856Z,53.94
2018-07-11T19:47:18.705Z,54.23
2018-07-11T19:50:00.490Z,55.16
2018-07-11T19:52:55.948Z,54.47
2018-07-11T19:55:41.564Z,55.60
2018-07-11T19:58:08.885Z,55.61
2018-07-11T20:00:37.291Z,55.10
2018-07-11T20:03:04.769Z,54.40
2018-07-11T20:05:32.513Z,55.00
2018-07-11T20:07:59.788Z,55.43
2018-07-11T20:10:27.192Z,55.52
2018-07-11T20:12:54.513Z,54.62
2018-07-11T20:15:21.957Z,54.94
2018-07-11T20:17:49.280Z,56.22
2018-07-11T20:20:16.743Z,55.48
2018-07-11T20:22:44.288Z,55.68
2018-07-11T20:25:12.752Z,55.21
2018-07-11T20:27:40.268Z,54.51
2018-07-11T20:30:09.218Z,54.70
2018-07-11T20:32:36.589Z,55.57
2018-07-11T20:35:03.904Z,55.90
2018-07-11T20:37:31.341Z,56.33
2018-07-11T20:39:59.467Z,56.56
2018-07-11T20:42:26.998Z,57.30
2018-07-11T20:44:55.085Z,56.90
2018-07-11T20:47:22.479Z,57.71
2018-07-11T20:49:50.115Z,57.46
2018-07-11T20:52:17.471Z,57.72
2018-07-11T20:54:44.783Z,58.42
2018-07-11T20:57:12.184Z,58.08
2018-07-11T21:00:50.069Z,57.81
2018-07-11T21:03:28.921Z,58.40
2018-07-11T21:06:30.918Z,58.94
2018-07-11T21:10:08.114Z,58.75
2018-07-11T21:12:46.008Z,59.22
2018-07-11T21:17:51.628Z,59.01
2018-07-11T21:20:18.971Z,59.03
2018-07-11T21:22:46.359Z,59.63
2018-07-11T21:25:13.633Z,59.54
2018-07-11T21:27:40.906Z,59.17
2018-07-11T21:30:08.245Z,58.63
2018-07-11T21:32:35.612Z,59.40
2018-07-11T21:35:03.008Z,59.66
2018-07-11T21:37:30.452Z,60.68
2018-07-11T21:39:57.816Z,60.49
2018-07-11T21:42:25.141Z,60.91
2018-07-11T21:44:52.564Z,60.61
2018-07-11T21:47:19.892Z,60.41
2018-07-11T21:49:47.284Z,60.55
2018-07-11T21:52:16.081Z,61.19
2018-07-11T21:54:43.556Z,60.67
2018-07-11T21:57:10.932Z,60.98
2018-07-11T21:59:38.230Z,60.49
2018-07-11T22:02:05.668Z,61.22
2018-07-11T22:04:32.991Z,60.83
2018-07-11T22:07:00.383Z,61.16
2018-07-11T22:09:27.703Z,61.33
2018-07-11T22:11:55.003Z,60.82
2018-07-11T22:14:22.322Z,60.61
2018-07-11T22:16:49.591Z,61.29
2018-07-11T22:19:17.018Z,60.82
2018-07-11T22:21:43.282Z,60.94
2018-07-11T22:24:09.516Z,61.35
2018-07-11T22:26:35.799Z,61.27
2018-07-11T22:29:02.125Z,60.99
2018-07-11T22:31:28.348Z,61.67
2018-07-11T22:33:54.608Z,61.71
2018-07-11T22:36:20.883Z,61.61
2018-07-11T22:38:47.086Z,61.59
2018-07-11T22:41:13.378Z,61.85
2018-07-11T22:43:39.639Z,62.20
2018-07-11T22:46:05.899Z,62.43
2018-07-11T22:48:32.202Z,62.49
2018-07-11T22:50:58.424Z,61.74
2018-07-11T22:53:24.648Z,61.60
2018-07-11T22:55:50.841Z,61.61
2018-07-11T22:58:17.094Z,61.86
2018-07-11T23:00:43.286Z,62.26
2018-07-11T23:03:09.497Z,62.28
2018-07-11T23:05:35.717Z,62.63
2018-07-11T23:08:01.989Z,62.12
2018-07-11T23:10:28.267Z,62.63
2018-07-11T23:12:54.501Z,62.01
2018-07-11T23:15:20.803Z,62.17
2018-07-11T23:17:47.034Z,62.77
2018-07-11T23:20:13.267Z,63.04
2018-07-11T23:22:39.464Z,62.94
2018-07-11T23:25:05.739Z,63.15
2018-07-11T23:27:32.011Z,63.20
2018-07-11T23:29:58.263Z,63.89
2018-07-11T23:32:24.640Z,63.92
2018-07-11T23:34:50.839Z,63.43
2018-07-11T23:37:17.037Z,63.75
2018-07-11T23:39:43.242Z,62.66
2018-07-11T23:42:09.462Z,63.43
2018-07-11T23:44:35.719Z,62.45
2018-07-11T23:47:01.950Z,62.45
2018-07-11T23:49:28.179Z,62.97
2018-07-11T23:51:54.486Z,62.51
2018-07-11T23:54:20.737Z,62.79
2018-07-11T23:56:46.941Z,62.72
2018-07-11T23:59:13.155Z,62.85
